Time;durP1;ratioP1;P1;durP2;ratioP2;P2;SDS_P1;SDS_P2;PMS_P1;PMS_P2;Temp;Humidity;BMP_temperature;BMP_pressure;BME280_temperature;BME280_humidity;BME280_pressure;Samples;Min_cycle;Max_cycle;Signal;HPM_P1;HPM_P2
2023/01/12 00:01:32;;;;;;;1.07;0.93;;;;;;;6.30;100.00;96666.63;4977690;28;20207;-70
2023/01/12 00:03:59;;;;;;;3.83;1.50;;;;;;;6.50;100.00;96655.13;4977068;28;20656;-69
2023/01/12 00:06:26;;;;;;;1.13;1.00;;;;;;;6.42;100.00;96657.66;4977442;28;20230;-69
2023/01/12 00:08:53;;;;;;;4.17;1.27;;;;;;;6.39;100.00;96657.09;4977820;28;20333;-69
2023/01/12 00:11:20;;;;;;;2.30;1.10;;;;;;;6.41;100.00;96650.75;4978189;28;20210;-69
2023/01/12 00:13:48;;;;;;;3.80;1.30;;;;;;;6.38;100.00;96645.81;4977566;28;20222;-69
2023/01/12 00:16:36;;;;;;;3.40;1.20;;;;;;;6.48;100.00;96651.84;4976702;28;20235;-69
2023/01/12 00:19:05;;;;;;;2.87;1.40;;;;;;;6.37;100.00;96643.34;4977417;28;20203;-69
2023/01/12 00:21:38;;;;;;;1.97;1.00;;;;;;;6.30;100.00;96648.31;4977625;28;20638;-69
2023/01/12 00:24:07;;;;;;;4.53;1.40;;;;;;;6.30;100.00;96648.31;4976875;28;20638;-69
2023/01/12 00:26:33;;;;;;;7.33;1.53;;;;;;;6.35;100.00;96646.09;4977744;28;20231;-69
2023/01/12 00:29:01;;;;;;;4.53;1.30;;;;;;;6.46;100.00;96643.31;4977638;28;20203;-69
2023/01/12 00:31:28;;;;;;;3.70;1.67;;;;;;;6.34;100.00;96638.38;4977857;28;20207;-69
2023/01/12 00:33:54;;;;;;;2.33;1.40;;;;;;;6.27;100.00;96650.38;4976215;28;20206;-69
2023/01/12 00:36:21;;;;;;;2.77;1.50;;;;;;;6.23;100.00;96647.22;4977564;28;20223;-69
2023/01/12 00:38:48;;;;;;;3.13;1.47;;;;;;;6.33;100.00;96657.69;4978542;28;20218;-69
2023/01/12 00:45:20;;;;;;;3.23;1.37;;;;;;;6.36;100.00;96657.38;4977125;28;20265;-69
2023/01/12 00:46:47;;;;;;;2.97;1.37;;;;;;;6.30;100.00;96663.16;4977216;28;20245;-69
2023/01/12 00:49:14;;;;;;;5.60;1.27;;;;;;;6.25;100.00;96660.16;4977959;28;20214;-69
2023/01/12 00:51:41;;;;;;;8.63;2.07;;;;;;;6.27;100.00;96666.91;4977331;28;20221;-69
2023/01/12 00:54:08;;;;;;;7.03;1.70;;;;;;;6.24;100.00;96663.75;4977137;28;20214;-69
2023/01/12 00:56:35;;;;;;;3.63;1.60;;;;;;;6.10;100.00;96667.63;4977221;28;20230;-69
2023/01/12 00:59:04;;;;;;;3.37;1.40;;;;;;;6.22;100.00;96653.44;4977641;28;20215;-68
2023/01/12 01:01:31;;;;;;;3.23;0.87;;;;;;;6.09;100.00;96650.25;4977198;28;20203;-69
2023/01/12 01:03:57;;;;;;;3.93;1.37;;;;;;;6.16;100.00;96655.75;4977491;28;20217;-69
2023/01/12 01:06:24;;;;;;;2.37;1.27;;;;;;;6.20;100.00;96657.97;4977358;28;20235;-70
2023/01/12 01:08:50;;;;;;;1.50;1.03;;;;;;;6.23;100.00;96665.53;4977788;28;20207;-69
2023/01/12 01:11:18;;;;;;;3.17;1.30;;;;;;;6.26;100.00;96653.97;4978023;28;20217;-69
2023/01/12 01:13:45;;;;;;;3.40;0.80;;;;;;;6.12;100.00;96655.25;4976648;28;20203;-69
2023/01/12 01:16:14;;;;;;;1.37;0.87;;;;;;;6.29;100.00;96662.38;4977348;28;20701;-69
2023/01/12 01:18:42;;;;;;;1.53;0.90;;;;;;;6.26;100.00;96662.66;4978010;28;20218;-69
2023/01/12 01:21:10;;;;;;;3.73;1.07;;;;;;;6.17;100.00;96673.97;4977578;28;20202;-69
2023/01/12 01:23:38;;;;;;;6.07;1.00;;;;;;;6.18;100.00;96690.47;4976710;28;20212;-69
2023/01/12 01:26:05;;;;;;;5.30;0.80;;;;;;;6.22;100.00;96695.31;4977369;28;20223;-69
2023/01/12 01:28:32;;;;;;;5.23;1.20;;;;;;;6.21;100.00;96696.25;4977446;28;20212;-69
2023/01/12 01:31:03;;;;;;;2.73;1.17;;;;;;;6.32;100.00;96687.44;4977630;28;20294;-69
2023/01/12 01:33:31;;;;;;;3.80;1.33;;;;;;;6.24;100.00;96698.59;4976754;28;20207;-69
2023/01/12 01:35:58;;;;;;;2.67;1.00;;;;;;;6.21;100.00;96696.25;4977686;28;20199;-69
2023/01/12 01:38:24;;;;;;;7.63;1.50;;;;;;;6.22;100.00;96697.91;4976940;28;20207;-69
2023/01/12 01:40:51;;;;;;;10.33;1.30;;;;;;;6.15;100.00;96685.53;4977165;28;20659;-69
2023/01/12 01:43:20;;;;;;;1.73;0.93;;;;;;;6.24;100.00;96690.75;4977663;28;20207;-69
2023/01/12 01:45:55;;;;;;;5.27;1.23;;;;;;;6.26;100.00;96688.81;4979947;28;20243;-69
2023/01/12 01:48:23;;;;;;;5.90;1.00;;;;;;;6.14;100.00;96689.09;4980530;28;21201;-69
2023/01/12 01:50:57;;;;;;;4.10;0.97;;;;;;;6.33;100.00;96676.00;4980564;28;20294;-69
2023/01/12 01:53:27;;;;;;;4.80;1.30;;;;;;;6.26;100.00;96688.81;4980210;28;20306;-68
2023/01/12 01:55:59;;;;;;;7.77;1.40;;;;;;;6.20;100.00;96684.13;4980350;28;20203;-69
2023/01/12 01:58:30;;;;;;;7.03;1.20;;;;;;;6.24;100.00;96685.50;4980075;28;20270;-69
2023/01/12 02:00:56;;;;;;;7.00;1.23;;;;;;;6.15;100.00;96682.91;4980297;28;20203;-69
2023/01/12 02:03:25;;;;;;;6.10;1.03;;;;;;;6.14;100.00;96684.69;4980029;28;20207;-69
2023/01/12 02:05:55;;;;;;;3.83;1.07;;;;;;;6.25;100.00;96692.41;4980581;28;20295;-69
2023/01/12 02:08:25;;;;;;;5.43;1.40;;;;;;;6.21;100.00;96685.78;4979824;28;20864;-69
2023/01/12 02:10:54;;;;;;;3.20;0.93;;;;;;;6.11;100.00;96679.75;4980242;28;20233;-69
2023/01/12 02:16:20;;;;;;;7.23;1.43;;;;;;;6.23;100.00;96668.16;4979907;28;20349;-69
2023/01/12 02:18:57;;;;;;;7.80;1.03;;;;;;;6.17;100.00;96678.34;4980278;28;20229;-69
2023/01/12 02:21:52;;;;;;;3.33;1.10;;;;;;;6.05;100.00;96675.06;4980217;28;20210;-69
2023/01/12 02:24:52;;;;;;;1.60;0.97;;;;;;;6.13;100.00;96669.94;4977222;28;20210;-69
2023/01/12 02:27:30;;;;;;;1.90;0.90;;;;;;;6.11;100.00;96678.94;4977673;28;20234;-69
2023/01/12 02:30:23;;;;;;;4.40;0.93;;;;;;;6.08;100.00;96679.19;4980508;28;20298;-70
2023/01/12 02:33:05;;;;;;;8.43;1.43;;;;;;;6.02;100.00;96673.69;4980184;28;20203;-69
2023/01/12 02:35:38;;;;;;;4.63;1.00;;;;;;;6.00;100.00;96680.88;4978596;28;20207;-69
2023/01/12 02:38:15;;;;;;;4.53;0.97;;;;;;;6.02;100.00;96673.69;4980441;28;20219;-69
2023/01/12 02:40:50;;;;;;;4.60;1.10;;;;;;;5.95;100.00;96677.84;4979026;28;20194;-69
2023/01/12 02:43:23;;;;;;;3.70;0.90;;;;;;;5.97;100.00;96665.44;4979634;28;21064;-69
2023/01/12 02:45:54;;;;;;;2.37;0.80;;;;;;;5.94;100.00;96665.72;4978810;28;20210;-69
2023/01/12 02:48:28;;;;;;;12.93;1.50;;;;;;;5.97;100.00;96655.81;4979561;28;20210;-69
2023/01/12 02:50:59;;;;;;;13.20;1.30;;;;;;;5.85;100.00;96656.09;4979990;28;20199;-69
2023/01/12 02:53:30;;;;;;;0.33;0.33;;;;;;;5.83;100.00;96652.78;4979806;28;20199;-69
2023/01/12 02:55:59;;;;;;;7.33;1.13;;;;;;;5.91;100.00;96653.75;4978082;28;20207;-69
2023/01/12 02:58:29;;;;;;;5.77;1.20;;;;;;;5.83;100.00;96653.59;4979692;28;20210;-69
2023/01/12 03:00:58;;;;;;;10.23;1.37;;;;;;;5.81;100.00;96647.69;4979781;28;20210;-69
2023/01/12 03:03:26;;;;;;;4.37;1.53;;;;;;;5.79;100.00;96640.94;4979392;28;20203;-69
2023/01/12 03:05:55;;;;;;;2.27;1.10;;;;;;;5.84;100.00;96644.81;4978730;28;20203;-69
2023/01/12 03:08:26;;;;;;;3.27;1.37;;;;;;;5.75;100.00;96645.59;4978890;28;20204;-69
2023/01/12 03:11:01;;;;;;;3.67;1.37;;;;;;;5.87;100.00;96648.91;4979578;28;20208;-69
2023/01/12 03:13:31;;;;;;;7.40;1.70;;;;;;;5.86;100.00;96645.47;4978793;28;20207;-69
2023/01/12 03:16:00;;;;;;;4.10;1.17;;;;;;;5.89;100.00;96647.81;4978157;28;20215;-69
2023/01/12 03:18:32;;;;;;;4.27;1.10;;;;;;;5.90;100.00;96639.00;4978868;28;21287;-69
2023/01/12 03:21:04;;;;;;;3.70;1.37;;;;;;;5.92;100.00;96637.09;4979211;28;20207;-69
2023/01/12 03:23:38;;;;;;;6.50;1.50;;;;;;;6.02;100.00;96631.84;4978577;28;20200;-69
2023/01/12 03:26:07;;;;;;;6.27;1.33;;;;;;;5.82;100.00;96625.00;4978836;28;20207;-69
2023/01/12 03:28:37;;;;;;;2.30;1.30;;;;;;;5.98;100.00;96609.53;4978903;28;20776;-69
2023/01/12 03:31:08;;;;;;;5.30;1.30;;;;;;;6.08;100.00;96611.16;4978095;28;20207;-69
2023/01/12 03:33:36;;;;;;;5.90;1.27;;;;;;;6.03;100.00;96607.34;4978801;28;20603;-69
2023/01/12 03:36:11;;;;;;;9.57;1.57;;;;;;;6.03;100.00;96612.56;4979479;28;20210;-69
2023/01/12 03:38:45;;;;;;;7.60;1.30;;;;;;;6.16;100.00;96606.91;4978613;28;20211;-70
2023/01/12 03:41:19;;;;;;;1.50;0.87;;;;;;;6.12;100.00;96594.22;4978688;28;20207;-69
2023/01/12 03:43:50;;;;;;;8.67;1.90;;;;;;;6.16;100.00;96596.44;4978166;28;20203;-69
2023/01/12 03:46:23;;;;;;;2.90;1.20;;;;;;;6.07;100.00;96594.66;4978307;28;20219;-69
2023/01/12 03:48:55;;;;;;;6.13;0.80;;;;;;;5.98;100.00;96580.78;4978521;28;20203;-69
2023/01/12 03:51:26;;;;;;;3.77;1.10;;;;;;;6.02;100.00;96579.53;4979340;28;20204;-69
2023/01/12 03:53:54;;;;;;;5.63;1.07;;;;;;;5.89;100.00;96579.00;4974897;28;20215;-69
2023/01/12 03:56:25;;;;;;;5.83;1.40;;;;;;;5.85;100.00;96580.25;4977930;28;20215;-69
2023/01/12 03:58:52;;;;;;;7.83;1.33;;;;;;;5.88;100.00;96583.41;4978780;28;20207;-69
2023/01/12 04:01:18;;;;;;;13.23;1.30;;;;;;;5.87;100.00;96594.00;4977796;28;20214;-69
2023/01/12 04:03:46;;;;;;;1.93;0.73;;;;;;;5.84;100.00;96600.34;4977304;28;20203;-69
2023/01/12 04:06:14;;;;;;;1.77;0.60;;;;;;;5.92;100.00;96591.78;4978778;28;20226;-69
2023/01/12 04:08:40;;;;;;;8.53;0.90;;;;;;;5.89;100.00;96597.31;4977300;28;20206;-69
2023/01/12 04:13:48;;;;;;;1.60;0.67;;;;;;;5.86;100.00;96597.59;4976991;28;20203;-68
2023/01/12 04:16:14;;;;;;;1.73;0.80;;;;;;;5.83;100.00;96590.84;4977978;28;20234;-69
2023/01/12 04:18:41;;;;;;;3.50;1.23;;;;;;;5.85;100.00;96588.09;4978211;28;20210;-69
2023/01/12 04:22:41;;;;;;;3.90;1.90;;;;;;;5.83;100.00;96590.84;4978198;28;20948;-69
2023/01/12 04:23:54;;;;;;;8.10;1.40;;;;;;;5.82;100.00;96577.94;4976702;28;20321;-69
2023/01/12 04:26:21;;;;;;;1.57;0.83;;;;;;;5.76;100.00;96578.47;4977723;28;20277;-69
2023/01/12 04:28:48;;;;;;;4.37;1.30;;;;;;;5.78;100.00;96574.75;4977853;28;20251;-69
2023/01/12 04:31:14;;;;;;;3.17;0.80;;;;;;;5.75;100.00;96576.78;4978141;28;20241;-69
2023/01/12 04:33:41;;;;;;;2.23;1.00;;;;;;;5.73;100.00;96574.31;4977145;28;20296;-69
2023/01/12 04:36:10;;;;;;;1.60;0.80;;;;;;;5.82;100.00;96567.47;4978063;28;20203;-69
2023/01/12 04:38:36;;;;;;;4.93;1.07;;;;;;;5.83;100.00;96563.84;4977785;28;20681;-69
2023/01/12 04:41:05;;;;;;;6.03;1.20;;;;;;;5.90;100.00;96560.53;4977987;28;20213;-69
2023/01/12 04:43:31;;;;;;;1.03;0.63;;;;;;;5.85;100.00;96561.94;4977042;28;20207;-69
2023/01/12 04:45:58;;;;;;;1.90;0.70;;;;;;;5.91;100.00;96564.00;4977709;28;21094;-69
2023/01/12 04:48:24;;;;;;;7.47;1.17;;;;;;;5.90;100.00;96554.50;4977415;28;20311;-69
2023/01/12 04:50:50;;;;;;;3.27;0.90;;;;;;;5.89;100.00;96553.66;4977841;28;20675;-69
2023/01/12 04:53:17;;;;;;;4.70;1.00;;;;;;;5.93;100.00;96554.22;4978078;28;20561;-70
2023/01/12 04:55:44;;;;;;;6.30;1.07;;;;;;;5.83;100.00;96553.41;4976790;28;20207;-69
2023/01/12 04:58:11;;;;;;;4.70;1.30;;;;;;;6.02;100.00;96555.97;4977247;28;20231;-69
2023/01/12 05:00:38;;;;;;;1.30;0.80;;;;;;;5.85;100.00;96554.09;4978219;28;20203;-69
2023/01/12 05:03:04;;;;;;;6.67;0.90;;;;;;;5.99;100.00;96562.31;4978005;28;20872;-69
2023/01/12 05:05:33;;;;;;;1.73;0.90;;;;;;;6.08;100.00;96561.47;4976446;28;20207;-69
2023/01/12 05:10:49;;;;;;;5.70;1.07;;;;;;;6.10;100.00;96568.22;4977625;28;20604;-69
2023/01/12 05:13:17;;;;;;;4.63;1.00;;;;;;;6.15;100.00;96568.59;4977478;28;20214;-69
2023/01/12 05:15:43;;;;;;;6.17;0.80;;;;;;;6.09;100.00;96569.16;4976723;28;20211;-69
2023/01/12 05:18:10;;;;;;;5.00;1.00;;;;;;;5.99;100.00;96558.88;4978010;28;20223;-69
2023/01/12 05:20:36;;;;;;;1.00;0.67;;;;;;;5.99;100.00;96557.09;4980134;28;20218;-69
2023/01/12 05:23:03;;;;;;;6.67;1.03;;;;;;;6.04;100.00;96544.41;4981784;28;20258;-69
2023/01/12 05:25:31;;;;;;;8.03;1.17;;;;;;;6.00;100.00;96539.63;4980622;28;20203;-69
2023/01/12 05:27:58;;;;;;;4.43;0.90;;;;;;;6.04;100.00;96532.16;4980910;28;20607;-69
2023/01/12 05:30:27;;;;;;;1.73;0.80;;;;;;;6.06;100.00;96534.66;4981242;28;20578;-69
2023/01/12 05:32:54;;;;;;;4.57;1.60;;;;;;;5.86;100.00;96521.75;4981293;28;20603;-69
2023/01/12 05:35:20;;;;;;;7.97;1.57;;;;;;;5.96;100.00;96522.53;4979715;28;20203;-69
2023/01/12 05:37:47;;;;;;;6.23;1.00;;;;;;;6.10;100.00;96526.34;4980870;28;20726;-69
2023/01/12 05:40:14;;;;;;;2.30;0.90;;;;;;;6.02;100.00;96525.44;4980896;28;20207;-69
2023/01/12 05:45:26;;;;;;;3.83;0.90;;;;;;;6.16;100.00;96522.31;4979718;28;20322;-69
2023/01/12 05:47:57;;;;;;;1.63;0.97;;;;;;;6.10;100.00;96547.28;4980844;28;20253;-69
2023/01/12 05:50:23;;;;;;;4.33;1.17;;;;;;;6.14;100.00;96548.63;4980740;28;20303;-68
2023/01/12 05:52:51;;;;;;;1.07;0.60;;;;;;;6.20;100.00;96553.31;4980412;28;20203;-69
2023/01/12 05:55:17;;;;;;;4.00;0.80;;;;;;;6.21;100.00;96556.75;4979754;28;20675;-69
2023/01/12 05:57:44;;;;;;;11.50;1.77;;;;;;;6.21;100.00;96554.97;4980677;28;20219;-69
2023/01/12 06:00:12;;;;;;;1.63;0.60;;;;;;;6.11;100.00;96558.59;4980069;28;20210;-69
2023/01/12 06:02:39;;;;;;;5.20;1.50;;;;;;;6.22;100.00;96551.38;4980375;28;20207;-69
2023/01/12 06:05:08;;;;;;;8.70;1.67;;;;;;;6.22;100.00;96567.09;4980132;28;20203;-70
2023/01/12 06:07:34;;;;;;;6.30;1.90;;;;;;;6.21;100.00;96557.59;4980014;28;20235;-69
2023/01/12 06:10:01;;;;;;;10.20;1.43;;;;;;;6.16;100.00;96564.19;4980482;28;20204;-70
2023/01/12 06:15:12;;;;;;;1.40;1.13;;;;;;;6.19;100.00;96571.78;4979175;28;20260;-69
2023/01/12 06:17:40;;;;;;;6.13;1.40;;;;;;;6.17;100.00;96573.69;4979597;28;20225;-69
2023/01/12 06:20:08;;;;;;;3.67;1.50;;;;;;;6.14;100.00;96574.00;4980653;28;20582;-69
2023/01/12 06:22:34;;;;;;;2.07;1.20;;;;;;;6.09;100.00;96561.31;4980555;28;20210;-69
2023/01/12 06:25:01;;;;;;;3.23;0.90;;;;;;;6.17;100.00;96574.53;4979370;28;20207;-69
2023/01/12 06:27:32;;;;;;;6.77;1.80;;;;;;;6.21;100.00;96570.66;4979449;28;20241;-69
2023/01/12 06:29:58;;;;;;;11.53;2.20;;;;;;;6.21;99.24;96565.44;4980915;28;20214;-69
2023/01/12 06:32:24;;;;;;;7.23;1.23;;;;;;;6.20;99.64;96568.19;4979065;28;20199;-69
2023/01/12 06:34:52;;;;;;;2.97;1.10;;;;;;;6.31;100.00;96562.78;4978823;28;20208;-69
2023/01/12 06:37:19;;;;;;;2.70;1.30;;;;;;;6.28;98.88;96563.06;4979964;28;20215;-69
2023/01/12 06:39:45;;;;;;;6.47;1.90;;;;;;;6.27;99.51;96557.00;4979977;28;20942;-69
2023/01/12 06:42:30;;;;;;;4.13;1.80;;;;;;;6.29;99.86;96549.03;4979519;28;20206;-69
2023/01/12 06:44:57;;;;;;;1.90;0.80;;;;;;;6.28;98.83;96557.84;4979302;28;20680;-69
2023/01/12 06:47:24;;;;;;;5.33;1.60;;;;;;;6.27;99.40;96549.13;4979641;28;20234;-69
2023/01/12 06:49:52;;;;;;;4.33;1.07;;;;;;;6.35;99.58;96540.56;4979302;28;20411;-69
2023/01/12 06:52:20;;;;;;;5.93;1.53;;;;;;;6.26;99.38;96542.28;4979159;28;20207;-69
2023/01/12 06:54:46;;;;;;;5.40;1.60;;;;;;;6.37;98.90;96533.41;4978604;28;20199;-69
2023/01/12 06:57:13;;;;;;;4.93;0.90;;;;;;;6.34;99.09;96534.53;4979122;28;20224;-69
2023/01/12 06:59:40;;;;;;;6.43;1.50;;;;;;;6.33;99.57;96532.88;4979416;28;20322;-69
2023/01/12 07:02:10;;;;;;;3.33;0.90;;;;;;;6.45;99.31;96534.31;4979241;28;20303;-69
2023/01/12 07:04:37;;;;;;;6.33;1.07;;;;;;;6.38;99.21;96528.03;4978876;28;20291;-69
2023/01/12 07:07:05;;;;;;;4.13;0.83;;;;;;;6.43;98.59;96525.81;4978881;28;20218;-69
2023/01/12 07:09:32;;;;;;;3.27;1.43;;;;;;;6.48;98.33;96530.59;4979237;28;20200;-69
2023/01/12 07:11:58;;;;;;;4.50;1.00;;;;;;;6.45;98.18;96521.25;4978638;28;20211;-69
2023/01/12 07:14:25;;;;;;;1.33;0.77;;;;;;;6.55;97.34;96529.06;4978851;28;20199;-69
2023/01/12 07:16:51;;;;;;;3.00;0.97;;;;;;;6.54;97.49;96525.59;4979151;28;20749;-69
2023/01/12 07:19:17;;;;;;;3.87;1.40;;;;;;;6.57;96.85;96534.97;4978498;28;20214;-69
2023/01/12 07:21:44;;;;;;;3.23;1.33;;;;;;;6.58;96.96;96534.84;4979114;28;20214;-69
2023/01/12 07:24:12;;;;;;;3.20;1.03;;;;;;;6.60;96.60;96535.50;4978655;28;20199;-69
2023/01/12 07:26:38;;;;;;;4.53;1.23;;;;;;;6.72;95.88;96529.09;4978686;28;20223;-69
2023/01/12 07:29:05;;;;;;;4.30;1.10;;;;;;;6.61;96.35;96531.09;4978628;28;20219;-69
2023/01/12 07:31:31;;;;;;;9.47;1.63;;;;;;;6.68;95.55;96539.06;4978545;28;20210;-69
2023/01/12 07:33:58;;;;;;;1.17;1.00;;;;;;;6.76;95.92;96527.84;4978365;28;20211;-68
2023/01/12 07:36:25;;;;;;;2.57;1.10;;;;;;;6.79;95.81;96520.50;4978503;28;20222;-69
2023/01/12 07:38:52;;;;;;;7.23;1.43;;;;;;;6.72;95.67;96519.44;4978640;28;20685;-69
2023/01/12 07:44:04;;;;;;;2.30;0.70;;;;;;;6.79;95.48;96512.66;4977393;28;20206;-69
2023/01/12 07:46:30;;;;;;;1.90;0.80;;;;;;;6.80;95.29;96510.88;4978557;28;20231;-68
2023/01/12 07:48:57;;;;;;;7.37;1.83;;;;;;;6.88;94.62;96518.81;4978356;28;20231;-68
2023/01/12 07:51:23;;;;;;;4.87;1.03;;;;;;;7.00;94.23;96517.59;4978253;28;20998;-69
2023/01/12 07:53:49;;;;;;;5.17;1.20;;;;;;;6.95;94.55;96522.47;4978362;28;21243;-68
2023/01/12 07:56:17;;;;;;;8.10;1.03;;;;;;;6.86;94.41;96520.72;4978637;28;20223;-68
2023/01/12 07:58:47;;;;;;;4.40;0.80;;;;;;;7.05;94.49;96529.31;4979278;28;20679;-68
2023/01/12 08:01:13;;;;;;;2.63;0.97;;;;;;;6.98;95.14;96522.19;4977579;28;20206;-68
2023/01/12 08:03:40;;;;;;;5.30;1.77;;;;;;;6.98;94.54;96522.19;4978370;28;20203;-68
2023/01/12 08:06:08;;;;;;;6.07;1.07;;;;;;;6.96;94.75;96517.09;4978123;28;20214;-68
2023/01/12 08:08:34;;;;;;;2.70;1.07;;;;;;;7.01;93.59;96524.50;4977887;28;20223;-68
2023/01/12 08:11:01;;;;;;;1.73;0.90;;;;;;;7.12;93.41;96524.28;4978284;28;20210;-68
2023/01/12 08:13:28;;;;;;;8.17;1.40;;;;;;;7.08;94.12;96520.34;4978168;28;20214;-68
2023/01/12 08:16:01;;;;;;;5.57;0.97;;;;;;;7.10;93.80;96521.00;4977009;28;20225;-68
2023/01/12 08:18:32;;;;;;;2.73;1.13;;;;;;;7.15;94.15;96521.38;4978716;28;20203;-68
2023/01/12 08:21:02;;;;;;;5.63;1.07;;;;;;;7.12;93.31;96521.69;4977797;28;20221;-68
2023/01/12 08:23:32;;;;;;;3.83;0.83;;;;;;;7.08;92.88;96533.44;4978094;28;20580;-68
2023/01/12 08:26:03;;;;;;;4.63;1.00;;;;;;;7.26;92.57;96528.03;4978201;28;20206;-68
2023/01/12 08:28:34;;;;;;;6.77;1.10;;;;;;;7.28;92.63;96525.28;4977963;28;20215;-68
2023/01/12 08:31:02;;;;;;;5.27;1.10;;;;;;;7.29;92.43;96522.50;4977414;28;20226;-68
2023/01/12 08:33:29;;;;;;;8.17;1.70;;;;;;;7.24;91.72;96515.22;4978752;28;20203;-68
2023/01/12 08:35:55;;;;;;;4.37;1.20;;;;;;;7.19;92.09;96510.41;4977596;28;20203;-68
2023/01/12 08:38:22;;;;;;;2.70;0.90;;;;;;;7.18;92.57;96518.44;4977413;28;20206;-68
2023/01/12 08:46:17;;;;;;;0.90;0.60;;;;;;;7.30;91.62;96505.78;4977161;28;20297;-70
2023/01/12 08:48:44;;;;;;;8.10;1.20;;;;;;;7.26;90.90;96530.66;4977998;28;20226;-68
2023/01/12 08:51:10;;;;;;;2.67;0.50;;;;;;;7.26;90.32;96518.53;4977491;28;20213;-69
2023/01/12 08:53:37;;;;;;;12.60;1.20;;;;;;;7.44;90.06;96518.34;4976646;28;20211;-69
2023/01/12 08:56:03;;;;;;;5.03;0.70;;;;;;;7.52;89.61;96510.56;4981707;28;20214;-69
2023/01/12 08:58:31;;;;;;;1.40;0.97;;;;;;;7.40;90.06;96516.19;4981578;28;20207;-69
2023/01/12 09:00:57;;;;;;;7.53;1.10;;;;;;;7.52;89.61;96507.13;4981353;28;20199;-69
2023/01/12 09:03:25;;;;;;;3.83;1.23;;;;;;;7.56;88.88;96493.56;4981833;28;20210;-68
2023/01/12 09:05:51;;;;;;;6.43;1.60;;;;;;;7.65;88.85;96482.16;4981235;28;20203;-69
2023/01/12 09:08:18;;;;;;;10.13;2.57;;;;;;;7.65;88.01;96482.16;4980857;28;20598;-69
2023/01/12 09:10:44;;;;;;;11.53;2.03;;;;;;;7.59;88.09;96482.75;4981811;28;20206;-68
2023/01/12 09:13:14;;;;;;;1.33;1.10;;;;;;;7.62;87.43;96498.16;4981624;28;20207;-68
2023/01/12 09:15:41;;;;;;;4.60;0.80;;;;;;;7.74;87.12;96491.72;4980724;28;20247;-69
2023/01/12 09:18:07;;;;;;;6.23;1.40;;;;;;;7.77;86.27;96499.28;4980948;28;20226;-69
2023/01/12 09:20:35;;;;;;;4.43;1.10;;;;;;;7.96;86.23;96505.13;4981408;28;20199;-69
2023/01/12 09:23:03;;;;;;;7.93;1.13;;;;;;;8.04;87.12;96491.25;4980817;28;20675;-68
2023/01/12 09:25:29;;;;;;;5.60;0.83;;;;;;;7.88;87.12;96491.16;4980589;28;20203;-69
2023/01/12 09:27:56;;;;;;;4.00;1.03;;;;;;;7.92;85.65;96480.19;4980861;28;20227;-69
2023/01/12 09:30:22;;;;;;;3.13;0.90;;;;;;;7.94;85.76;96474.78;4981179;28;20211;-68
2023/01/12 09:32:48;;;;;;;7.57;1.00;;;;;;;8.12;85.39;96478.16;4981145;28;20595;-69
2023/01/12 09:35:18;;;;;;;3.20;0.80;;;;;;;8.15;85.73;96480.53;4980549;28;20203;-69
2023/01/12 09:37:46;;;;;;;3.60;0.53;;;;;;;8.20;85.36;96473.00;4980736;28;20231;-68
2023/01/12 09:40:15;;;;;;;1.23;0.60;;;;;;;8.19;85.80;96487.09;4980697;28;20225;-68
2023/01/12 09:48:18;;;;;;;0.87;0.57;;;;;;;7.96;85.67;96478.91;4980173;28;20241;-69
2023/01/12 09:50:49;;;;;;;8.37;0.90;;;;;;;8.13;86.30;96474.56;4981253;28;20211;-69
2023/01/12 09:53:21;;;;;;;5.03;0.77;;;;;;;8.15;85.13;96483.97;4980987;28;20211;-69
2023/01/12 09:55:56;;;;;;;1.03;0.70;;;;;;;8.23;85.39;96472.69;4979885;28;21004;-68
2023/01/12 09:58:31;;;;;;;3.70;0.90;;;;;;;8.27;85.64;96482.69;4979268;28;20774;-69
2023/01/12 10:01:01;;;;;;;6.03;0.83;;;;;;;8.11;86.37;96479.16;4980313;28;20202;-68
2023/01/12 10:03:30;;;;;;;5.13;0.70;;;;;;;8.19;84.79;96485.28;4979746;28;21145;-69
2023/01/12 10:06:00;;;;;;;3.10;0.97;;;;;;;8.25;84.50;96473.34;4980118;28;20362;-68
2023/01/12 10:08:34;;;;;;;0.53;0.40;;;;;;;8.30;84.61;96492.06;4980036;28;20223;-68
2023/01/12 10:11:10;;;;;;;2.03;0.97;;;;;;;8.25;84.78;96491.72;4980533;28;20203;-68
2023/01/12 10:14:00;;;;;;;5.03;1.03;;;;;;;8.36;84.48;96489.63;4979651;28;20203;-68
2023/01/12 10:16:34;;;;;;;6.03;2.13;;;;;;;8.32;85.17;96484.88;4980228;28;20231;-68
2023/01/12 10:19:06;;;;;;;1.43;0.87;;;;;;;8.27;84.68;96481.88;4980076;28;20195;-68
2023/01/12 10:21:34;;;;;;;2.43;0.90;;;;;;;8.14;85.15;96502.50;4980358;28;20195;-68
2023/01/12 10:24:07;;;;;;;2.93;0.90;;;;;;;8.20;84.25;96512.38;4976702;28;20209;-68
2023/01/12 10:26:41;;;;;;;6.30;1.23;;;;;;;8.24;84.91;96501.41;4978252;28;20231;-68
2023/01/12 10:29:10;;;;;;;1.23;0.63;;;;;;;8.12;85.57;96483.41;4978279;28;20227;-68
2023/01/12 10:31:36;;;;;;;5.13;1.07;;;;;;;8.14;84.51;96510.38;4978855;28;20207;-71
2023/01/12 10:34:06;;;;;;;6.10;0.70;;;;;;;8.18;85.09;96490.72;4978280;28;21270;-70
2023/01/12 10:36:34;;;;;;;5.87;1.00;;;;;;;8.15;84.94;96499.72;4979101;28;20665;-70
2023/01/12 10:39:04;;;;;;;0.67;0.50;;;;;;;8.24;84.65;96488.28;4979387;28;20211;-70
2023/01/12 10:41:31;;;;;;;9.90;1.90;;;;;;;8.31;85.12;96496.34;4978762;28;20229;-70
2023/01/12 10:44:14;;;;;;;4.60;1.30;;;;;;;8.44;85.24;96489.69;4978006;28;20302;-70
2023/01/12 10:46:41;;;;;;;1.40;0.90;;;;;;;8.27;85.30;96487.94;4978273;28;20242;-68
2023/01/12 10:49:19;;;;;;;3.17;0.67;;;;;;;8.41;85.35;96489.97;4978007;28;20230;-68
2023/01/12 10:51:51;;;;;;;4.03;0.93;;;;;;;8.34;86.29;96478.47;4978137;28;20206;-68
2023/01/12 10:54:22;;;;;;;2.93;0.80;;;;;;;8.29;85.40;96470.25;4977593;28;20207;-67
2023/01/12 10:56:57;;;;;;;1.30;0.80;;;;;;;8.38;85.77;96473.75;4978808;28;20227;-68
2023/01/12 10:59:28;;;;;;;4.70;0.97;;;;;;;8.34;85.59;96475.00;4979135;28;20249;-68
2023/01/12 11:02:12;;;;;;;2.53;1.20;;;;;;;8.46;85.02;96481.66;4979784;28;20206;-68
2023/01/12 11:04:41;;;;;;;2.40;0.80;;;;;;;8.23;86.00;96465.63;4978507;28;20207;-68
2023/01/12 11:07:11;;;;;;;3.57;1.13;;;;;;;8.43;85.08;96455.72;4979266;28;20222;-68
2023/01/12 11:09:41;;;;;;;2.30;0.57;;;;;;;8.28;84.95;96450.22;4979297;28;20223;-68
2023/01/12 11:12:21;;;;;;;2.37;1.20;;;;;;;8.43;85.44;96439.97;4979020;28;20210;-68
2023/01/12 11:14:59;;;;;;;2.93;1.23;;;;;;;8.41;85.09;96444.53;4978529;28;20210;-68
2023/01/12 11:17:42;;;;;;;3.70;1.27;;;;;;;8.51;84.42;96440.78;4978759;28;20277;-68
2023/01/12 11:20:18;;;;;;;3.47;0.93;;;;;;;8.53;84.71;96434.41;4978643;28;20199;-68
2023/01/12 11:22:46;;;;;;;3.10;1.00;;;;;;;8.47;84.48;96430.78;4979314;28;20203;-68
2023/01/12 11:25:19;;;;;;;5.43;0.80;;;;;;;8.61;83.94;96426.53;4978307;28;20207;-68
2023/01/12 11:27:49;;;;;;;5.50;0.90;;;;;;;8.48;85.01;96433.25;4978640;28;20289;-68
2023/01/12 11:30:19;;;;;;;7.20;1.33;;;;;;;8.57;84.63;96443.59;4979029;28;20218;-68
2023/01/12 11:32:53;;;;;;;3.90;1.20;;;;;;;8.57;84.35;96427.84;4979352;28;20586;-68
2023/01/12 11:35:30;;;;;;;4.57;0.90;;;;;;;8.66;83.50;96433.94;4973977;28;20203;-68
2023/01/12 11:38:00;;;;;;;2.67;1.07;;;;;;;8.70;83.91;96433.44;4975626;28;20668;-68
2023/01/12 11:40:31;;;;;;;1.37;0.80;;;;;;;8.57;83.35;96416.53;4976676;28;20552;-68
2023/01/12 11:45:54;;;;;;;4.17;0.53;;;;;;;8.71;82.07;96421.16;4975821;28;21299;-68
2023/01/12 11:48:27;;;;;;;5.20;0.43;;;;;;;8.68;82.07;96403.91;4976088;28;20222;-68
2023/01/12 11:50:56;;;;;;;5.13;1.10;;;;;;;8.73;81.82;96406.88;4976124;28;20231;-68
2023/01/12 11:53:24;;;;;;;5.67;1.00;;;;;;;8.72;82.80;96405.22;4976815;28;20206;-68
2023/01/12 11:56:14;;;;;;;3.93;1.20;;;;;;;8.87;82.19;96401.00;4976150;28;20657;-68
2023/01/12 11:58:53;;;;;;;2.97;1.03;;;;;;;8.76;81.81;96411.00;4976931;28;20215;-68
2023/01/12 12:01:27;;;;;;;3.30;1.00;;;;;;;8.80;81.71;96405.25;4976901;28;21045;-68
2023/01/12 12:03:59;;;;;;;5.27;1.17;;;;;;;9.06;81.73;96400.66;4975160;28;20215;-68
2023/01/12 12:06:52;;;;;;;3.47;1.07;;;;;;;8.88;82.14;96402.63;4975886;28;20226;-68
2023/01/12 12:09:31;;;;;;;8.27;1.50;;;;;;;9.04;82.15;96405.28;4976159;28;20783;-68
2023/01/12 12:12:02;;;;;;;2.00;1.33;;;;;;;9.07;81.64;96398.88;4976782;28;20574;-68
2023/01/12 12:14:43;;;;;;;4.27;0.83;;;;;;;8.94;82.07;96403.78;4976793;28;20222;-68
2023/01/12 12:17:17;;;;;;;5.73;1.27;;;;;;;9.04;81.99;96405.28;4975649;28;20253;-69
2023/01/12 12:19:53;;;;;;;6.13;3.60;;;;;;;8.94;82.86;96407.22;4977490;28;20205;-69
2023/01/12 12:22:35;;;;;;;2.43;0.83;;;;;;;9.11;81.60;96401.00;4976536;28;20207;-68